This is the latest recevied weather packets stored in our database for station/object EA1IOK-1. If no packets are shown the sender has not sent any weather packets the latest 10 day(s).
| Time | Temp. | Humidity | Pressure | Rain* | Wind** | Luminosity | Snow |
|---|---|---|---|---|---|---|---|
| 1778165928 | 22.22° C | 60% | 1006.5 hPa | - | - | - | - |
| 1778165027 | 22.78° C | 56% | 1006.6 hPa | - | - | - | - |
| 1778164126 | 22.22° C | 62% | 1006.3 hPa | - | - | - | - |
| 1778163225 | 23.33° C | 61% | 1006.3 hPa | - | - | - | - |
| 1778162324 | 18.89° C | 90% | 1006.2 hPa | - | - | - | - |
| 1778161458 | 20.56° C | 77% | 1006.1 hPa | - | - | - | - |
| 1778161424 | 20.56° C | 77% | 1006.1 hPa | - | - | - | - |
| 1778160523 | 23.89° C | 56% | 1006.2 hPa | - | - | - | - |
| 1778159622 | 23.33° C | 54% | 1006.3 hPa | - | - | - | - |
| 1778158722 | 22.78° C | 63% | 1006.6 hPa | - | - | - | - |
| 1778157853 | 22.22° C | 59% | 1006.6 hPa | - | - | - | - |
| 1778157821 | 22.22° C | 59% | 1006.6 hPa | - | - | - | - |
| 1778156920 | 24.44° C | 55% | 1006.9 hPa | - | - | - | - |
| 1778156051 | 26.11° C | 52% | 1007.2 hPa | - | - | - | - |
| 1778156019 | 26.11° C | 52% | 1007.2 hPa | - | - | - | - |
| 1778155306 | 22.22° C | 62% | 1007.5 hPa | - | - | - | - |
| 1778155123 | 22.22° C | 62% | 1007.5 hPa | - | - | - | - |
| 1778154218 | 21.67° C | 71% | 1007.7 hPa | - | - | - | - |
| 1778153318 | 25.56° C | 65% | 1007.8 hPa | - | - | - | - |
| 1778152423 | 22.22° C | 79% | 1007.9 hPa | - | - | - | - |
| 1778151522 | 21.11° C | 92% | 1008.1 hPa | - | - | - | - |
| 1778150623 | 21.67° C | 94% | 1008.2 hPa | - | - | - | - |
| 1778149715 | 21.67° C | 89% | 1008.4 hPa | - | - | - | - |
| 1778148814 | 22.78° C | 83% | 1008.5 hPa | - | - | - | - |
| 1778147913 | 21.11° C | 99% | 1008.7 hPa | - | - | - | - |
* Rain since midnight (hover to see other rain measurements)
** Current wind speed in m/s (hover to see current wind gust speed)